KBKE/BKE METAR and TAF weather

Enter ICAO airport designator
Station Type Date Time Source
KBKE METAR 2020/01/21 17:53 UTC NOAA

KBKE 211753Z AUTO 14012KT 10SM SCT070 OVC100 03/M02 A2987 RMK AO2 SNB02E28 SLP130 P0000 60000 T00331017 10033 20006 50002


Station Type Date Time Source
KBKE Decoded METAR 2020/01/21 17:53 UTC NOAA

BAKER MUNICIPAL AIRPORT, OR, United States (KBKE) 44-50N 117-49W 1024M
Jan 21, 2020 - 12:53 PM EST / 2020.01.21 1753 UTC
Wind: from the SE (140 degrees) at 14 MPH (12 KT):0
Visibility: 10 mile(s):0
Sky conditions: overcast
Precipitation last hour: A trace
Temperature: 37.9 F (3.3 C)
Dew Point: 28.9 F (-1.7 C)
Relative Humidity: 69%
Pressure (altimeter): 29.87 in. Hg (1011 hPa)
Pressure tendency: 0.01 inches (0.2 hPa) higher than three hours ago
ob: KBKE 211753Z AUTO 14012KT 10SM SCT070 OVC100 03/M02 A2987 RMK AO2 SNB02E28 SLP130 P0000 60000 T00331017 10033 20006 50002
cycle: 18

Station Type Date Time Source
KBKE TAF 2020/01/21 18:27 UTC NOAA

TAF KBKE 211725Z 2118/2218 12010KT P6SM VCSH BKN050 OVC070
FM211900 12013KT 4SM -SN OVC020
FM220000 11005KT P6SM SCT025 BKN050
FM220600 VRB03KT P6SM SCT020 BKN050

Example: see airport list